createdAt,value
2019-02-26T00:02:04.956Z,12.97
2019-02-26T00:04:35.138Z,19.63
2019-02-26T00:07:05.648Z,13.20
2019-02-26T00:09:35.498Z,13.40
2019-02-26T00:12:05.141Z,11.20
2019-02-26T00:14:34.676Z,12.43
2019-02-26T00:17:08.674Z,14.70
2019-02-26T00:19:35.336Z,12.20
2019-02-26T00:22:07.227Z,14.10
2019-02-26T00:24:37.758Z,11.50
2019-02-26T00:27:09.618Z,13.23
2019-02-26T00:29:38.978Z,10.30
2019-02-26T00:32:09.939Z,13.70
2019-02-26T00:34:41.158Z,10.00
2019-02-26T00:37:10.882Z,16.70
2019-02-26T00:39:40.455Z,14.00
2019-02-26T00:42:10.490Z,15.70
2019-02-26T00:44:39.986Z,14.07
2019-02-26T00:47:10.032Z,13.53
2019-02-26T00:49:39.565Z,12.43
2019-02-26T00:52:11.068Z,17.40
2019-02-26T00:54:40.654Z,15.33
2019-02-26T00:57:11.593Z,13.07
2019-02-26T00:59:43.607Z,12.43
2019-02-26T01:02:12.551Z,14.97
2019-02-26T01:04:43.846Z,12.23
2019-02-26T01:07:13.207Z,12.07
2019-02-26T01:09:42.671Z,13.00
2019-02-26T01:12:13.792Z,11.90
2019-02-26T01:14:44.208Z,15.90
2019-02-26T01:17:16.458Z,12.57
2019-02-26T01:19:45.830Z,12.60
2019-02-26T01:22:15.311Z,15.30
2019-02-26T01:24:44.953Z,16.63
2019-02-26T01:27:14.568Z,14.10
2019-02-26T01:29:44.566Z,17.00
2019-02-26T01:32:17.545Z,16.43
2019-02-26T01:34:47.829Z,16.67
2019-02-26T01:37:17.648Z,12.70
2019-02-26T01:39:49.593Z,16.00
2019-02-26T01:42:22.346Z,13.70
2019-02-26T01:44:49.542Z,12.37
2019-02-26T01:47:19.679Z,12.67
2019-02-26T01:49:51.136Z,11.30
2019-02-26T01:52:20.722Z,11.70
2019-02-26T01:54:51.377Z,13.20
2019-02-26T01:57:21.497Z,10.13
2019-02-26T01:59:51.019Z,17.73
2019-02-26T02:02:22.726Z,12.70
2019-02-26T02:04:51.655Z,11.70
2019-02-26T02:07:23.716Z,11.30
2019-02-26T02:09:53.190Z,15.00
2019-02-26T02:12:27.417Z,10.80
2019-02-26T02:14:54.881Z,9.67
2019-02-26T02:17:24.351Z,12.13
2019-02-26T02:19:53.994Z,10.03
2019-02-26T02:22:23.484Z,11.53
2019-02-26T02:24:53.962Z,9.57
2019-02-26T02:27:27.212Z,8.40
2019-02-26T02:29:57.663Z,9.80
2019-02-26T02:32:28.741Z,10.50
2019-02-26T02:35:00.514Z,15.10
2019-02-26T02:37:30.085Z,9.27
2019-02-26T02:40:00.289Z,10.50
2019-02-26T02:42:29.789Z,8.90
2019-02-26T02:44:59.251Z,9.83
2019-02-26T02:47:31.584Z,10.23
2019-02-26T02:50:00.053Z,7.83
2019-02-26T02:52:32.257Z,8.80
2019-02-26T02:55:01.014Z,9.40
2019-02-26T02:57:32.654Z,8.47
2019-02-26T03:00:02.977Z,8.73
2019-02-26T03:02:37.488Z,7.90
2019-02-26T03:05:05.048Z,10.97
2019-02-26T03:07:34.507Z,7.57
2019-02-26T03:10:06.789Z,8.03
2019-02-26T03:12:36.331Z,8.03
2019-02-26T03:15:14.953Z,13.00
2019-02-26T03:17:44.515Z,8.37
2019-02-26T03:20:17.045Z,10.53
2019-02-26T03:22:49.198Z,7.70
2019-02-26T03:25:23.003Z,13.10
2019-02-26T03:27:49.912Z,7.77
2019-02-26T03:30:31.745Z,8.50
2019-02-26T03:32:58.623Z,9.63
2019-02-26T03:35:24.447Z,10.27
2019-02-26T03:37:55.536Z,8.23
2019-02-26T03:40:27.264Z,9.03
2019-02-26T03:42:56.269Z,8.83
2019-02-26T03:45:25.755Z,10.00
2019-02-26T03:47:57.789Z,9.80
2019-02-26T03:50:27.257Z,9.47
2019-02-26T03:52:56.824Z,10.37
2019-02-26T03:55:26.326Z,9.13
2019-02-26T03:57:58.542Z,8.27
2019-02-26T04:00:27.425Z,11.00
2019-02-26T04:02:57.018Z,9.03
2019-02-26T04:05:26.476Z,7.33
2019-02-26T04:07:58.915Z,9.23
2019-02-26T04:10:27.472Z,8.67
2019-02-26T04:12:58.198Z,16.37
2019-02-26T04:15:30.031Z,8.87
2019-02-26T04:17:58.905Z,8.57
2019-02-26T04:20:28.373Z,9.70
2019-02-26T04:22:57.873Z,7.60
2019-02-26T04:25:36.469Z,9.73
2019-02-26T04:28:16.795Z,7.50
2019-02-26T04:30:59.815Z,8.53
2019-02-26T04:34:13.567Z,11.20
2019-02-26T04:37:10.348Z,8.87
2019-02-26T04:40:10.156Z,9.27
2019-02-26T04:42:52.121Z,13.60
2019-02-26T04:45:47.498Z,12.03
2019-02-26T04:48:26.944Z,8.60
2019-02-26T04:50:55.801Z,8.30
2019-02-26T04:53:25.822Z,12.33
2019-02-26T04:55:57.493Z,8.00
2019-02-26T04:58:27.822Z,7.90
2019-02-26T05:00:57.278Z,8.50
2019-02-26T05:03:26.797Z,9.90
2019-02-26T05:05:57.296Z,12.27
2019-02-26T05:08:29.390Z,12.40
2019-02-26T05:11:00.008Z,9.73
2019-02-26T05:13:32.142Z,8.80
2019-02-26T05:16:01.233Z,8.00
2019-02-26T05:18:32.625Z,10.20
2019-02-26T05:21:04.596Z,9.23
2019-02-26T05:23:33.677Z,8.23
2019-02-26T05:26:05.616Z,10.43
2019-02-26T05:28:37.649Z,11.53
2019-02-26T05:31:06.597Z,12.20
2019-02-26T05:33:36.951Z,9.30
2019-02-26T05:36:08.792Z,12.60
2019-02-26T05:38:37.778Z,9.03
2019-02-26T05:41:07.665Z,10.07
2019-02-26T05:43:37.058Z,7.97
2019-02-26T05:46:06.549Z,9.10
2019-02-26T05:48:37.236Z,8.33
2019-02-26T05:51:09.343Z,9.53
2019-02-26T05:53:38.569Z,9.50
2019-02-26T05:56:08.899Z,9.00
2019-02-26T05:58:41.321Z,11.20
2019-02-26T06:01:10.437Z,16.20
2019-02-26T06:03:41.042Z,12.87
2019-02-26T06:06:11.278Z,14.07
2019-02-26T06:08:41.281Z,13.23
2019-02-26T06:11:10.883Z,13.27
2019-02-26T06:13:43.108Z,20.77
2019-02-26T06:16:11.605Z,15.40
2019-02-26T06:18:41.963Z,13.97
2019-02-26T06:21:15.269Z,19.20
2019-02-26T06:23:45.918Z,14.13
2019-02-26T06:26:17.742Z,17.43
2019-02-26T06:28:53.228Z,17.33
2019-02-26T06:31:25.007Z,17.27
2019-02-26T06:33:54.245Z,19.87
2019-02-26T06:36:25.621Z,14.47
2019-02-26T06:38:56.462Z,20.07
2019-02-26T06:41:26.255Z,15.17
2019-02-26T06:43:55.759Z,13.60
2019-02-26T06:46:26.986Z,18.53
2019-02-26T06:48:56.440Z,16.77
2019-02-26T06:51:26.555Z,15.87
2019-02-26T06:53:58.835Z,17.60
2019-02-26T06:56:30.132Z,20.63
2019-02-26T06:59:05.751Z,20.00
2019-02-26T07:01:37.404Z,16.60
2019-02-26T07:04:06.947Z,15.67
2019-02-26T07:06:38.010Z,16.60
2019-02-26T07:09:08.716Z,44.20
2019-02-26T07:11:38.792Z,25.27
2019-02-26T07:14:10.227Z,15.17
2019-02-26T07:16:40.337Z,18.73
2019-02-26T07:19:12.246Z,26.27
2019-02-26T07:21:42.865Z,21.10
2019-02-26T07:24:12.519Z,18.70
2019-02-26T07:26:44.089Z,17.70
2019-02-26T07:29:17.357Z,24.57
2019-02-26T07:31:44.538Z,28.03
2019-02-26T07:34:15.742Z,12.70
2019-02-26T07:36:46.095Z,12.73
2019-02-26T07:39:18.265Z,16.40
2019-02-26T07:41:49.380Z,11.60
2019-02-26T07:44:21.246Z,21.67
2019-02-26T07:46:50.115Z,22.63
2019-02-26T07:49:20.026Z,14.17
2019-02-26T07:51:49.699Z,22.37
2019-02-26T07:54:19.173Z,22.73
2019-02-26T07:56:50.160Z,12.40
2019-02-26T07:59:27.433Z,14.33
2019-02-26T08:01:51.176Z,25.27
2019-02-26T08:04:20.690Z,14.17
2019-02-26T08:06:51.950Z,14.60
2019-02-26T08:09:23.601Z,12.03
2019-02-26T08:11:52.621Z,6.07
2019-02-26T08:14:23.304Z,4.40
2019-02-26T08:16:55.663Z,10.47
2019-02-26T08:19:29.767Z,5.97
2019-02-26T08:21:57.132Z,4.10
2019-02-26T08:24:26.733Z,5.73
2019-02-26T08:26:56.215Z,3.87
2019-02-26T08:29:27.241Z,2.50
2019-02-26T08:31:59.237Z,2.67
2019-02-26T08:34:28.168Z,5.40
2019-02-26T08:36:57.656Z,3.33
2019-02-26T08:39:27.127Z,2.00
2019-02-26T08:42:09.143Z,1.60
2019-02-26T08:44:38.622Z,2.77
2019-02-26T08:47:11.207Z,1.30
2019-02-26T08:49:40.704Z,1.00
2019-02-26T08:52:10.523Z,2.60
2019-02-26T08:54:39.996Z,1.23
2019-02-26T08:57:09.840Z,1.43
2019-02-26T08:59:42.260Z,6.63
2019-02-26T09:02:11.923Z,1.87
2019-02-26T09:04:42.584Z,3.60
2019-02-26T09:07:14.163Z,1.00
2019-02-26T09:09:45.147Z,3.00
2019-02-26T09:12:15.661Z,0.80
2019-02-26T09:14:48.118Z,1.37
2019-02-26T09:17:20.928Z,1.37
2019-02-26T09:19:50.886Z,1.00
2019-02-26T09:22:21.254Z,2.63
2019-02-26T09:24:52.047Z,2.63
2019-02-26T09:27:22.395Z,1.10
2019-02-26T09:29:51.854Z,1.10
2019-02-26T09:32:21.533Z,1.47
2019-02-26T09:34:52.023Z,2.03
2019-02-26T09:37:22.275Z,2.90
2019-02-26T09:39:52.444Z,0.60
2019-02-26T09:42:23.814Z,0.93
2019-02-26T09:44:55.450Z,4.67
2019-02-26T09:47:33.311Z,3.63
2019-02-26T09:50:02.195Z,2.80
2019-02-26T09:52:32.680Z,6.70
2019-02-26T09:55:02.357Z,2.07
2019-02-26T09:57:31.854Z,3.90
2019-02-26T10:00:03.334Z,3.83
2019-02-26T10:02:32.549Z,2.90
2019-02-26T10:05:02.019Z,2.10
2019-02-26T10:07:35.531Z,2.20
2019-02-26T10:10:04.013Z,0.60
2019-02-26T10:12:34.775Z,1.37
2019-02-26T10:15:11.065Z,1.60
2019-02-26T10:17:42.702Z,1.40
2019-02-26T10:20:23.263Z,3.70
2019-02-26T10:22:54.770Z,1.53
2019-02-26T10:25:25.697Z,2.20
2019-02-26T10:27:54.940Z,1.80
2019-02-26T10:30:24.407Z,3.43
2019-02-26T10:32:53.879Z,5.83
2019-02-26T10:35:33.259Z,1.60
2019-02-26T10:38:00.373Z,1.97
2019-02-26T10:40:35.366Z,1.03
2019-02-26T10:43:00.480Z,0.67
2019-02-26T10:45:36.073Z,0.60
2019-02-26T10:48:03.872Z,2.10
2019-02-26T10:50:33.569Z,1.27
2019-02-26T10:53:09.738Z,2.20
2019-02-26T10:55:38.630Z,1.00
2019-02-26T10:58:10.041Z,2.00
2019-02-26T11:00:38.007Z,4.73
2019-02-26T11:03:09.227Z,2.80
2019-02-26T11:05:39.713Z,8.63
2019-02-26T11:08:10.076Z,1.70
2019-02-26T11:10:42.169Z,2.13
2019-02-26T11:13:13.032Z,3.10
2019-02-26T11:15:42.032Z,1.70
2019-02-26T11:18:12.338Z,4.33
2019-02-26T11:20:45.130Z,4.90
2019-02-26T11:23:16.107Z,2.80
2019-02-26T11:25:45.175Z,4.30
2019-02-26T11:28:14.648Z,9.20
2019-02-26T11:30:44.803Z,1.37
2019-02-26T11:33:15.613Z,3.00
2019-02-26T11:35:47.096Z,2.47
2019-02-26T11:38:17.142Z,1.43
2019-02-26T11:40:47.546Z,1.43
2019-02-26T11:43:20.181Z,0.60
2019-02-26T11:45:48.296Z,0.90
2019-02-26T11:48:17.884Z,1.90
2019-02-26T11:50:47.464Z,2.10
2019-02-26T11:53:16.967Z,1.70
2019-02-26T11:55:46.450Z,1.47
2019-02-26T11:58:18.745Z,2.03
2019-02-26T12:00:51.894Z,1.47
2019-02-26T12:03:24.902Z,7.27
2019-02-26T12:05:54.175Z,1.33
2019-02-26T12:08:25.732Z,1.90
2019-02-26T12:10:58.019Z,2.93
2019-02-26T12:13:27.664Z,1.57
2019-02-26T12:15:57.409Z,2.70
2019-02-26T12:18:26.872Z,2.57
2019-02-26T12:20:56.332Z,1.20
2019-02-26T12:23:25.880Z,1.00
2019-02-26T12:25:56.440Z,2.10
2019-02-26T12:28:28.318Z,2.20
2019-02-26T12:30:58.622Z,2.10
2019-02-26T12:33:32.373Z,1.10
2019-02-26T12:36:01.969Z,1.37
2019-02-26T12:38:31.510Z,0.97
2019-02-26T12:41:01.164Z,1.63
2019-02-26T12:43:32.990Z,2.60
2019-02-26T12:46:04.533Z,0.90
2019-02-26T12:48:36.589Z,0.90
2019-02-26T12:51:04.730Z,1.63
2019-02-26T12:53:38.065Z,2.03
2019-02-26T12:56:08.880Z,0.70
2019-02-26T12:58:40.899Z,2.30
2019-02-26T13:01:09.901Z,3.27
2019-02-26T13:03:42.553Z,2.60
2019-02-26T13:06:12.129Z,1.53
2019-02-26T13:08:42.709Z,1.50
2019-02-26T13:11:14.151Z,1.00
2019-02-26T13:13:45.234Z,1.60
2019-02-26T13:16:15.647Z,1.33
2019-02-26T13:18:47.823Z,0.67
2019-02-26T13:21:17.216Z,0.67
2019-02-26T13:23:47.105Z,2.40
2019-02-26T13:26:19.621Z,0.90
2019-02-26T13:28:53.031Z,1.00
2019-02-26T13:31:22.312Z,2.10
2019-02-26T13:33:50.379Z,2.30
2019-02-26T13:36:19.848Z,2.83
2019-02-26T13:38:50.469Z,1.33
2019-02-26T13:41:29.591Z,1.17
2019-02-26T13:43:51.211Z,2.03
2019-02-26T13:46:20.704Z,2.27
2019-02-26T13:48:50.196Z,1.20
2019-02-26T13:51:19.681Z,2.10
2019-02-26T13:53:49.263Z,0.70
2019-02-26T13:56:18.755Z,1.73
2019-02-26T13:58:48.330Z,1.77
2019-02-26T14:01:17.819Z,1.33
2019-02-26T14:03:47.303Z,1.03
2019-02-26T14:06:17.058Z,1.23
2019-02-26T14:08:46.571Z,1.00
2019-02-26T14:11:16.038Z,0.70
2019-02-26T14:13:45.519Z,1.30
2019-02-26T14:16:15.130Z,0.73
2019-02-26T14:18:44.595Z,1.03
2019-02-26T14:21:14.460Z,1.83
2019-02-26T14:23:43.891Z,1.20
2019-02-26T14:26:13.363Z,0.97
2019-02-26T14:28:42.824Z,1.93
2019-02-26T14:31:12.431Z,2.20
2019-02-26T14:33:41.899Z,3.13
2019-02-26T14:36:11.399Z,2.23
2019-02-26T14:38:40.906Z,1.77
2019-02-26T14:41:10.442Z,2.97
2019-02-26T14:43:40.104Z,0.70
2019-02-26T14:46:09.591Z,3.43
2019-02-26T14:48:39.120Z,3.53
2019-02-26T14:51:08.638Z,0.83
2019-02-26T14:53:38.103Z,0.77
2019-02-26T14:56:07.748Z,1.80
2019-02-26T14:58:37.364Z,0.80
2019-02-26T15:01:06.862Z,1.20
2019-02-26T15:03:36.337Z,0.80
2019-02-26T15:06:05.838Z,5.10
2019-02-26T15:08:35.494Z,1.50
2019-02-26T15:11:04.976Z,1.13
2019-02-26T15:13:34.479Z,0.90
2019-02-26T15:16:03.963Z,1.00
2019-02-26T15:18:35.749Z,1.83
2019-02-26T15:21:05.145Z,1.73
2019-02-26T15:23:34.622Z,2.20
2019-02-26T15:26:04.086Z,3.20
2019-02-26T15:28:33.848Z,1.80
2019-02-26T15:31:03.321Z,1.27
2019-02-26T15:33:32.803Z,1.60
2019-02-26T15:36:04.137Z,1.73
2019-02-26T15:38:33.796Z,1.30
2019-02-26T15:41:03.667Z,1.50
2019-02-26T15:43:33.235Z,1.80
2019-02-26T15:46:02.690Z,2.40
2019-02-26T15:48:33.685Z,1.43
2019-02-26T15:51:03.389Z,2.13
2019-02-26T15:53:32.875Z,1.17
2019-02-26T15:56:02.382Z,1.33
2019-02-26T15:58:34.184Z,1.20
2019-02-26T16:01:03.094Z,1.60
2019-02-26T16:03:32.574Z,1.03
2019-02-26T16:06:02.050Z,6.27
2019-02-26T16:08:34.510Z,1.00
2019-02-26T16:11:02.750Z,1.73
2019-02-26T16:13:32.239Z,1.43
2019-02-26T16:16:01.923Z,0.87
2019-02-26T16:18:31.499Z,1.50
2019-02-26T16:21:00.969Z,1.00
2019-02-26T16:23:30.467Z,2.30
2019-02-26T16:26:00.010Z,1.13
2019-02-26T16:28:29.658Z,2.17
2019-02-26T16:30:59.170Z,1.43
2019-02-26T16:33:28.687Z,3.53
2019-02-26T16:35:58.392Z,1.07
2019-02-26T16:38:28.049Z,2.80
2019-02-26T16:40:57.524Z,1.40
2019-02-26T16:43:27.004Z,3.23
2019-02-26T16:45:56.514Z,1.43
2019-02-26T16:48:25.987Z,2.50
2019-02-26T16:50:55.462Z,1.53
2019-02-26T16:53:25.168Z,2.70
2019-02-26T16:55:54.762Z,1.20
2019-02-26T16:58:24.316Z,2.93
2019-02-26T17:00:53.808Z,4.20
2019-02-26T17:03:23.292Z,3.17
2019-02-26T17:05:52.777Z,5.17
2019-02-26T17:08:22.279Z,2.40
2019-02-26T17:10:51.777Z,2.20
2019-02-26T17:13:21.246Z,13.73
2019-02-26T17:15:51.141Z,33.60
2019-02-26T17:18:20.730Z,2.93
2019-02-26T17:20:50.196Z,3.47
2019-02-26T17:23:19.686Z,3.33
2019-02-26T17:25:49.154Z,4.70
2019-02-26T17:28:18.899Z,1.57
2019-02-26T17:30:48.411Z,2.30
2019-02-26T17:33:17.864Z,2.33
2019-02-26T17:35:47.440Z,4.77
2019-02-26T17:38:18.054Z,3.73
2019-02-26T17:40:48.300Z,1.70
2019-02-26T17:43:17.779Z,2.00
2019-02-26T17:45:47.294Z,1.27
2019-02-26T17:48:16.753Z,1.57
2019-02-26T17:50:46.618Z,1.50
2019-02-26T17:53:16.355Z,1.90
2019-02-26T17:55:46.944Z,2.63
2019-02-26T17:58:16.584Z,1.30
2019-02-26T18:00:53.477Z,1.83
2019-02-26T18:03:22.953Z,6.10
2019-02-26T18:05:52.435Z,4.93
2019-02-26T18:08:21.944Z,3.73
2019-02-26T18:10:51.523Z,3.97
2019-02-26T18:13:21.288Z,2.03
2019-02-26T18:15:50.898Z,5.37
2019-02-26T18:18:20.368Z,2.93
2019-02-26T18:20:49.851Z,1.30
2019-02-26T18:23:19.361Z,1.63
2019-02-26T18:25:48.935Z,1.60
2019-02-26T18:28:18.430Z,2.03
2019-02-26T18:30:47.923Z,2.60
2019-02-26T18:33:17.389Z,2.90
2019-02-26T18:35:46.904Z,3.37
2019-02-26T18:38:17.424Z,2.60
2019-02-26T18:40:47.042Z,1.60
2019-02-26T18:43:16.552Z,3.57
2019-02-26T18:45:46.224Z,2.20
2019-02-26T18:48:15.808Z,1.90
2019-02-26T18:50:45.382Z,1.90
2019-02-26T18:53:14.859Z,2.20
2019-02-26T18:55:44.353Z,3.50
2019-02-26T18:58:16.491Z,9.43
2019-02-26T19:00:45.073Z,5.20
2019-02-26T19:03:14.540Z,4.63
2019-02-26T19:05:44.055Z,3.63
2019-02-26T19:08:13.536Z,2.20
2019-02-26T19:10:43.157Z,2.50
2019-02-26T19:13:12.638Z,2.70
2019-02-26T19:15:42.113Z,2.40
2019-02-26T19:18:11.634Z,2.83
2019-02-26T19:20:41.421Z,3.57
2019-02-26T19:23:11.059Z,4.37
2019-02-26T19:25:41.732Z,9.73
2019-02-26T19:28:11.733Z,6.03
2019-02-26T19:30:41.221Z,3.10
2019-02-26T19:33:10.726Z,2.23
2019-02-26T19:35:59.623Z,3.33
2019-02-26T19:38:29.137Z,2.30
2019-02-26T19:41:12.378Z,3.37
2019-02-26T19:43:40.874Z,3.23
2019-02-26T19:46:10.373Z,3.10
2019-02-26T19:48:40.316Z,6.33
2019-02-26T19:51:09.826Z,3.40
2019-02-26T19:53:39.373Z,2.20
2019-02-26T19:56:08.889Z,2.13
2019-02-26T19:58:40.601Z,2.70
2019-02-26T20:01:09.693Z,3.00
2019-02-26T20:03:58.559Z,3.73
2019-02-26T20:06:28.064Z,17.03
2019-02-26T20:08:57.535Z,4.40
2019-02-26T20:11:27.047Z,3.23
2019-02-26T20:14:04.538Z,2.80
2019-02-26T20:16:28.406Z,3.53
2019-02-26T20:18:59.164Z,4.63
2019-02-26T20:21:29.307Z,2.23
2019-02-26T20:23:58.795Z,3.70
2019-02-26T20:26:28.299Z,1.93
2019-02-26T20:28:57.770Z,2.30
2019-02-26T20:31:28.899Z,4.07
2019-02-26T20:33:58.755Z,2.37
2019-02-26T20:36:28.233Z,3.63
2019-02-26T20:38:57.768Z,3.77
2019-02-26T20:41:27.275Z,6.23
2019-02-26T20:43:56.955Z,2.27
2019-02-26T20:46:26.443Z,4.97
2019-02-26T20:48:55.956Z,2.40
2019-02-26T20:51:27.200Z,8.83
2019-02-26T20:53:56.624Z,6.17
2019-02-26T20:56:28.519Z,4.47
2019-02-26T20:58:57.547Z,2.40
2019-02-26T21:01:27.081Z,3.97
2019-02-26T21:03:56.685Z,5.80
2019-02-26T21:06:26.324Z,3.17
2019-02-26T21:08:55.800Z,3.77
2019-02-26T21:11:25.305Z,1.90
2019-02-26T21:13:54.896Z,2.20
2019-02-26T21:16:24.470Z,2.30
2019-02-26T21:18:53.973Z,2.53
2019-02-26T21:21:23.566Z,2.60
2019-02-26T21:23:53.076Z,5.90
2019-02-26T21:26:22.583Z,3.70
2019-02-26T21:28:52.087Z,1.87
2019-02-26T21:31:21.553Z,2.20
2019-02-26T21:33:51.159Z,4.17
2019-02-26T21:36:20.615Z,3.23
2019-02-26T21:38:50.304Z,2.23
2019-02-26T21:41:21.055Z,2.93
2019-02-26T21:43:51.002Z,3.07
2019-02-26T21:46:22.682Z,2.10
2019-02-26T21:48:51.823Z,2.57
2019-02-26T21:51:21.315Z,3.13
2019-02-26T21:53:50.790Z,2.60
2019-02-26T21:56:20.297Z,2.30
2019-02-26T21:58:49.810Z,3.30
2019-02-26T22:01:19.285Z,2.70
2019-02-26T22:03:48.847Z,2.33
2019-02-26T22:06:18.368Z,4.80
2019-02-26T22:08:47.848Z,3.43
2019-02-26T22:11:18.447Z,2.90
2019-02-26T22:13:49.113Z,5.27
2019-02-26T22:16:18.727Z,8.17
2019-02-26T22:18:49.159Z,3.47
2019-02-26T22:21:19.613Z,4.90
2019-02-26T22:23:49.403Z,3.37
2019-02-26T22:26:19.232Z,4.23
2019-02-26T22:28:49.161Z,2.87
2019-02-26T22:31:18.986Z,3.53
2019-02-26T22:33:48.541Z,5.27
2019-02-26T22:36:18.006Z,9.87
2019-02-26T22:38:49.117Z,12.77
2019-02-26T22:41:18.723Z,5.47
2019-02-26T22:43:48.300Z,5.63
2019-02-26T22:46:17.782Z,5.83
2019-02-26T22:48:47.710Z,5.30
2019-02-26T22:51:18.672Z,8.50
2019-02-26T22:53:48.345Z,4.03
2019-02-26T22:56:17.912Z,4.83
2019-02-26T22:58:47.419Z,3.57
2019-02-26T23:01:30.242Z,6.90
2019-02-26T23:03:53.523Z,7.37
2019-02-26T23:06:22.997Z,9.90
2019-02-26T23:08:52.505Z,9.23
2019-02-26T23:11:22.089Z,7.00
2019-02-26T23:13:51.567Z,4.07
2019-02-26T23:16:21.070Z,3.70
2019-02-26T23:18:50.541Z,6.63
2019-02-26T23:21:20.165Z,3.43
2019-02-26T23:23:49.629Z,4.43
2019-02-26T23:26:19.111Z,3.67
2019-02-26T23:28:48.627Z,5.20
2019-02-26T23:31:18.625Z,3.00
2019-02-26T23:33:49.044Z,4.43
2019-02-26T23:36:18.662Z,2.63
2019-02-26T23:38:48.136Z,3.00
2019-02-26T23:41:17.615Z,3.87
2019-02-26T23:43:47.220Z,6.63
2019-02-26T23:46:16.692Z,6.10
2019-02-26T23:48:46.175Z,5.03
2019-02-26T23:51:20.249Z,4.53
2019-02-26T23:53:46.851Z,4.23
2019-02-26T23:56:16.789Z,5.10
2019-02-26T23:58:47.530Z,7.73
